sensor_id;sensor_type;location;lat;lon;timestamp;temperature;humidity
66594;DHT22;53450;42.584;23.366;2023-08-07T00:00:55;15.83;74.94
66594;DHT22;53450;42.584;23.366;2023-08-07T00:03:21;15.73;75.19
66594;DHT22;53450;42.584;23.366;2023-08-07T00:06:12;15.53;75.66
66594;DHT22;53450;42.584;23.366;2023-08-07T00:09:02;15.15;76.83
66594;DHT22;53450;42.584;23.366;2023-08-07T00:11:28;15.25;76.69
66594;DHT22;53450;42.584;23.366;2023-08-07T00:13:54;15.34;76.04
66594;DHT22;53450;42.584;23.366;2023-08-07T00:16:44;15.40;75.90
66594;DHT22;53450;42.584;23.366;2023-08-07T00:19:36;15.39;76.08
66594;DHT22;53450;42.584;23.366;2023-08-07T00:22:01;15.32;75.97
66594;DHT22;53450;42.584;23.366;2023-08-07T00:24:27;15.14;76.41
66594;DHT22;53450;42.584;23.366;2023-08-07T00:26:52;15.19;77.10
66594;DHT22;53450;42.584;23.366;2023-08-07T00:29:18;15.19;76.98
66594;DHT22;53450;42.584;23.366;2023-08-07T00:31:44;14.92;78.14
66594;DHT22;53450;42.584;23.366;2023-08-07T00:34:10;14.81;77.83
66594;DHT22;53450;42.584;23.366;2023-08-07T00:36:36;14.67;78.15
66594;DHT22;53450;42.584;23.366;2023-08-07T00:39:02;14.73;78.21
66594;DHT22;53450;42.584;23.366;2023-08-07T00:41:38;14.80;78.17
66594;DHT22;53450;42.584;23.366;2023-08-07T00:44:04;14.83;77.46
66594;DHT22;53450;42.584;23.366;2023-08-07T00:46:29;14.88;77.50
66594;DHT22;53450;42.584;23.366;2023-08-07T00:48:55;14.95;77.97
66594;DHT22;53450;42.584;23.366;2023-08-07T00:51:23;14.99;77.52
66594;DHT22;53450;42.584;23.366;2023-08-07T00:53:49;14.89;78.13
66594;DHT22;53450;42.584;23.366;2023-08-07T00:56:15;14.80;78.19
66594;DHT22;53450;42.584;23.366;2023-08-07T00:58:40;14.89;78.10
66594;DHT22;53450;42.584;23.366;2023-08-07T01:01:07;15.01;78.10
66594;DHT22;53450;42.584;23.366;2023-08-07T01:03:33;15.04;77.75
66594;DHT22;53450;42.584;23.366;2023-08-07T01:05:59;14.94;77.30
66594;DHT22;53450;42.584;23.366;2023-08-07T01:08:25;14.91;77.85
66594;DHT22;53450;42.584;23.366;2023-08-07T01:11:08;14.83;77.77
66594;DHT22;53450;42.584;23.366;2023-08-07T01:19:26;14.56;78.89
66594;DHT22;53450;42.584;23.366;2023-08-07T01:22:24;14.32;79.37
66594;DHT22;53450;42.584;23.366;2023-08-07T01:24:50;14.48;79.04
66594;DHT22;53450;42.584;23.366;2023-08-07T01:35:01;14.54;78.94
66594;DHT22;53450;42.584;23.366;2023-08-07T01:37:31;14.37;78.93
66594;DHT22;53450;42.584;23.366;2023-08-07T01:39:59;14.32;79.22
66594;DHT22;53450;42.584;23.366;2023-08-07T01:42:26;14.22;78.99
66594;DHT22;53450;42.584;23.366;2023-08-07T01:44:52;13.96;79.47
66594;DHT22;53450;42.584;23.366;2023-08-07T01:47:18;14.09;79.54
66594;DHT22;53450;42.584;23.366;2023-08-07T01:49:44;14.05;79.64
66594;DHT22;53450;42.584;23.366;2023-08-07T01:52:09;14.08;79.66
66594;DHT22;53450;42.584;23.366;2023-08-07T01:54:36;14.08;79.63
66594;DHT22;53450;42.584;23.366;2023-08-07T01:57:02;14.01;79.75
66594;DHT22;53450;42.584;23.366;2023-08-07T01:59:28;14.13;79.60
66594;DHT22;53450;42.584;23.366;2023-08-07T02:01:53;14.13;79.97
66594;DHT22;53450;42.584;23.366;2023-08-07T02:04:19;14.13;79.76
66594;DHT22;53450;42.584;23.366;2023-08-07T02:06:44;13.95;79.54
66594;DHT22;53450;42.584;23.366;2023-08-07T02:09:11;13.71;80.34
66594;DHT22;53450;42.584;23.366;2023-08-07T02:11:36;13.68;80.44
66594;DHT22;53450;42.584;23.366;2023-08-07T02:14:02;13.74;80.01
66594;DHT22;53450;42.584;23.366;2023-08-07T02:16:28;13.83;79.64
66594;DHT22;53450;42.584;23.366;2023-08-07T02:18:53;13.74;79.38
66594;DHT22;53450;42.584;23.366;2023-08-07T02:21:19;13.67;80.00
66594;DHT22;53450;42.584;23.366;2023-08-07T02:23:45;13.54;80.32
66594;DHT22;53450;42.584;23.366;2023-08-07T02:26:10;13.51;80.82
66594;DHT22;53450;42.584;23.366;2023-08-07T02:28:36;13.51;81.15
66594;DHT22;53450;42.584;23.366;2023-08-07T02:31:01;13.54;81.30
66594;DHT22;53450;42.584;23.366;2023-08-07T02:33:27;13.48;81.39
66594;DHT22;53450;42.584;23.366;2023-08-07T02:35:55;13.50;81.52
66594;DHT22;53450;42.584;23.366;2023-08-07T02:38:21;13.53;81.41
66594;DHT22;53450;42.584;23.366;2023-08-07T02:40:47;13.53;81.01
66594;DHT22;53450;42.584;23.366;2023-08-07T02:43:12;13.53;80.70
66594;DHT22;53450;42.584;23.366;2023-08-07T02:45:38;13.51;80.59
66594;DHT22;53450;42.584;23.366;2023-08-07T02:48:29;13.03;81.41
66594;DHT22;53450;42.584;23.366;2023-08-07T02:51:20;13.11;81.38
66594;DHT22;53450;42.584;23.366;2023-08-07T02:53:46;13.11;81.49
66594;DHT22;53450;42.584;23.366;2023-08-07T02:56:11;13.23;80.82
66594;DHT22;53450;42.584;23.366;2023-08-07T02:58:37;13.11;80.71
66594;DHT22;53450;42.584;23.366;2023-08-07T03:01:04;13.03;80.98
66594;DHT22;53450;42.584;23.366;2023-08-07T03:03:31;12.99;81.29
66594;DHT22;53450;42.584;23.366;2023-08-07T03:05:57;12.97;81.62
66594;DHT22;53450;42.584;23.366;2023-08-07T03:08:22;12.97;82.01
66594;DHT22;53450;42.584;23.366;2023-08-07T03:10:52;13.16;81.74
66594;DHT22;53450;42.584;23.366;2023-08-07T03:13:18;13.27;81.50
66594;DHT22;53450;42.584;23.366;2023-08-07T03:15:44;13.26;81.21
66594;DHT22;53450;42.584;23.366;2023-08-07T03:18:10;13.26;81.19
66594;DHT22;53450;42.584;23.366;2023-08-07T03:20:38;13.31;81.10
66594;DHT22;53450;42.584;23.366;2023-08-07T03:23:04;13.40;81.05
66594;DHT22;53450;42.584;23.366;2023-08-07T03:25:30;13.30;81.08
66594;DHT22;53450;42.584;23.366;2023-08-07T03:28:21;13.37;81.06
66594;DHT22;53450;42.584;23.366;2023-08-07T03:31:12;13.24;81.18
66594;DHT22;53450;42.584;23.366;2023-08-07T03:33:38;13.30;81.00
66594;DHT22;53450;42.584;23.366;2023-08-07T03:36:04;13.48;81.35
66594;DHT22;53450;42.584;23.366;2023-08-07T03:38:31;13.44;81.21
66594;DHT22;53450;42.584;23.366;2023-08-07T03:40:57;13.51;81.29
66594;DHT22;53450;42.584;23.366;2023-08-07T03:43:23;13.62;81.26
66594;DHT22;53450;42.584;23.366;2023-08-07T03:45:56;13.58;81.88
66594;DHT22;53450;42.584;23.366;2023-08-07T03:48:22;13.61;81.90
66594;DHT22;53450;42.584;23.366;2023-08-07T03:50:48;13.59;82.18
66594;DHT22;53450;42.584;23.366;2023-08-07T03:53:14;13.71;82.32
66594;DHT22;53450;42.584;23.366;2023-08-07T03:55:49;13.71;82.11
66594;DHT22;53450;42.584;23.366;2023-08-07T03:58:15;13.77;82.12
66594;DHT22;53450;42.584;23.366;2023-08-07T04:00:40;13.94;81.42
66594;DHT22;53450;42.584;23.366;2023-08-07T04:03:06;14.05;80.64
66594;DHT22;53450;42.584;23.366;2023-08-07T04:05:33;14.15;80.52
66594;DHT22;53450;42.584;23.366;2023-08-07T04:08:24;14.22;80.67
66594;DHT22;53450;42.584;23.366;2023-08-07T04:10:58;14.34;80.73
66594;DHT22;53450;42.584;23.366;2023-08-07T04:13:25;14.39;80.69
66594;DHT22;53450;42.584;23.366;2023-08-07T04:15:50;14.43;80.44
66594;DHT22;53450;42.584;23.366;2023-08-07T04:18:41;14.50;80.44
66594;DHT22;53450;42.584;23.366;2023-08-07T04:21:33;14.43;80.56
66594;DHT22;53450;42.584;23.366;2023-08-07T04:23:59;14.41;80.33
66594;DHT22;53450;42.584;23.366;2023-08-07T04:26:26;14.53;79.93
66594;DHT22;53450;42.584;23.366;2023-08-07T04:28:52;14.53;80.08
66594;DHT22;53450;42.584;23.366;2023-08-07T04:31:17;14.50;80.05
66594;DHT22;53450;42.584;23.366;2023-08-07T04:33:44;14.57;80.29
66594;DHT22;53450;42.584;23.366;2023-08-07T04:36:09;14.60;79.91
66594;DHT22;53450;42.584;23.366;2023-08-07T04:38:35;14.50;80.20
66594;DHT22;53450;42.584;23.366;2023-08-07T04:41:00;14.41;80.46
66594;DHT22;53450;42.584;23.366;2023-08-07T04:43:26;14.32;80.98
66594;DHT22;53450;42.584;23.366;2023-08-07T04:45:53;14.30;80.84
66594;DHT22;53450;42.584;23.366;2023-08-07T04:48:19;14.27;80.49
66594;DHT22;53450;42.584;23.366;2023-08-07T04:50:46;14.33;80.82
66594;DHT22;53450;42.584;23.366;2023-08-07T04:53:12;14.43;80.68
66594;DHT22;53450;42.584;23.366;2023-08-07T04:55:38;14.51;80.16
66594;DHT22;53450;42.584;23.366;2023-08-07T04:58:03;14.70;78.32
66594;DHT22;53450;42.584;23.366;2023-08-07T05:00:29;14.80;78.94
66594;DHT22;53450;42.584;23.366;2023-08-07T05:02:55;14.59;78.87
66594;DHT22;53450;42.584;23.366;2023-08-07T05:05:20;14.67;78.73
66594;DHT22;53450;42.584;23.366;2023-08-07T05:07:47;14.70;78.63
66594;DHT22;53450;42.584;23.366;2023-08-07T05:10:15;14.64;78.68
66594;DHT22;53450;42.584;23.366;2023-08-07T05:12:41;14.63;78.77
66594;DHT22;53450;42.584;23.366;2023-08-07T05:15:07;14.68;78.28
66594;DHT22;53450;42.584;23.366;2023-08-07T05:17:32;14.70;78.70
66594;DHT22;53450;42.584;23.366;2023-08-07T05:19:58;14.67;78.55
66594;DHT22;53450;42.584;23.366;2023-08-07T05:22:24;14.78;78.22
66594;DHT22;53450;42.584;23.366;2023-08-07T05:24:49;15.05;77.59
66594;DHT22;53450;42.584;23.366;2023-08-07T05:27:15;15.16;76.81
66594;DHT22;53450;42.584;23.366;2023-08-07T05:29:41;15.38;76.84
66594;DHT22;53450;42.584;23.366;2023-08-07T05:32:14;15.34;76.53
66594;DHT22;53450;42.584;23.366;2023-08-07T05:34:40;15.31;76.09
66594;DHT22;53450;42.584;23.366;2023-08-07T05:37:07;15.40;75.71
66594;DHT22;53450;42.584;23.366;2023-08-07T05:39:34;15.60;75.37
66594;DHT22;53450;42.584;23.366;2023-08-07T05:42:00;15.69;74.89
66594;DHT22;53450;42.584;23.366;2023-08-07T05:44:25;15.91;74.68
66594;DHT22;53450;42.584;23.366;2023-08-07T05:46:51;16.01;73.58
66594;DHT22;53450;42.584;23.366;2023-08-07T05:49:16;15.94;73.51
66594;DHT22;53450;42.584;23.366;2023-08-07T05:51:42;15.76;74.15
66594;DHT22;53450;42.584;23.366;2023-08-07T05:54:08;15.64;74.63
66594;DHT22;53450;42.584;23.366;2023-08-07T05:56:33;15.59;74.89
66594;DHT22;53450;42.584;23.366;2023-08-07T05:58:59;15.71;74.57
66594;DHT22;53450;42.584;23.366;2023-08-07T06:01:25;15.93;74.33
66594;DHT22;53450;42.584;23.366;2023-08-07T06:03:56;16.04;73.76
66594;DHT22;53450;42.584;23.366;2023-08-07T06:06:21;16.11;73.29
66594;DHT22;53450;42.584;23.366;2023-08-07T06:08:47;16.36;73.04
66594;DHT22;53450;42.584;23.366;2023-08-07T06:11:13;16.47;72.08
66594;DHT22;53450;42.584;23.366;2023-08-07T06:13:40;16.62;73.30
66594;DHT22;53450;42.584;23.366;2023-08-07T06:16:06;16.83;72.53
66594;DHT22;53450;42.584;23.366;2023-08-07T06:18:32;16.76;72.75
66594;DHT22;53450;42.584;23.366;2023-08-07T06:20:58;16.87;72.96
66594;DHT22;53450;42.584;23.366;2023-08-07T06:23:23;17.09;72.34
66594;DHT22;53450;42.584;23.366;2023-08-07T06:25:49;17.04;71.53
66594;DHT22;53450;42.584;23.366;2023-08-07T06:28:15;17.10;71.20
66594;DHT22;53450;42.584;23.366;2023-08-07T06:30:40;17.03;71.41
66594;DHT22;53450;42.584;23.366;2023-08-07T06:33:06;17.17;71.62
66594;DHT22;53450;42.584;23.366;2023-08-07T06:35:39;17.14;70.78
66594;DHT22;53450;42.584;23.366;2023-08-07T06:38:05;17.35;70.82
66594;DHT22;53450;42.584;23.366;2023-08-07T06:40:31;17.23;70.49
66594;DHT22;53450;42.584;23.366;2023-08-07T06:42:57;17.17;70.48
66594;DHT22;53450;42.584;23.366;2023-08-07T06:45:22;17.24;70.44
66594;DHT22;53450;42.584;23.366;2023-08-07T06:47:48;17.28;71.21
66594;DHT22;53450;42.584;23.366;2023-08-07T06:50:14;17.21;70.41
66594;DHT22;53450;42.584;23.366;2023-08-07T06:52:39;17.37;70.25
66594;DHT22;53450;42.584;23.366;2023-08-07T06:55:05;17.61;69.78
66594;DHT22;53450;42.584;23.366;2023-08-07T06:57:31;17.69;68.40
66594;DHT22;53450;42.584;23.366;2023-08-07T06:59:56;17.65;68.26
66594;DHT22;53450;42.584;23.366;2023-08-07T07:02:22;17.89;68.60
66594;DHT22;53450;42.584;23.366;2023-08-07T07:04:47;17.95;67.74
66594;DHT22;53450;42.584;23.366;2023-08-07T07:07:13;17.88;67.59
66594;DHT22;53450;42.584;23.366;2023-08-07T07:09:39;17.74;68.16
66594;DHT22;53450;42.584;23.366;2023-08-07T07:12:05;18.02;67.64
66594;DHT22;53450;42.584;23.366;2023-08-07T07:14:32;18.30;67.94
66594;DHT22;53450;42.584;23.366;2023-08-07T07:16:58;18.36;66.93
66594;DHT22;53450;42.584;23.366;2023-08-07T07:19:23;18.36;66.40
66594;DHT22;53450;42.584;23.366;2023-08-07T07:21:49;18.47;66.45
66594;DHT22;53450;42.584;23.366;2023-08-07T07:24:15;18.43;65.79
66594;DHT22;53450;42.584;23.366;2023-08-07T07:27:06;18.53;66.40
66594;DHT22;53450;42.584;23.366;2023-08-07T07:29:35;17.93;66.65
66594;DHT22;53450;42.584;23.366;2023-08-07T07:32:01;18.03;67.75
66594;DHT22;53450;42.584;23.366;2023-08-07T07:34:27;18.29;66.39
66594;DHT22;53450;42.584;23.366;2023-08-07T07:36:52;18.34;66.63
66594;DHT22;53450;42.584;23.366;2023-08-07T07:39:20;18.41;66.41
66594;DHT22;53450;42.584;23.366;2023-08-07T07:41:45;18.46;65.88
66594;DHT22;53450;42.584;23.366;2023-08-07T07:44:11;18.58;65.83
66594;DHT22;53450;42.584;23.366;2023-08-07T07:46:36;18.65;65.59
66594;DHT22;53450;42.584;23.366;2023-08-07T07:49:02;18.71;65.71
66594;DHT22;53450;42.584;23.366;2023-08-07T07:51:31;18.81;64.07
66594;DHT22;53450;42.584;23.366;2023-08-07T07:53:57;18.91;63.86
66594;DHT22;53450;42.584;23.366;2023-08-07T07:56:23;19.08;63.24
66594;DHT22;53450;42.584;23.366;2023-08-07T07:58:48;19.01;61.09
66594;DHT22;53450;42.584;23.366;2023-08-07T08:01:14;19.14;61.59
66594;DHT22;53450;42.584;23.366;2023-08-07T08:03:40;19.33;60.23
66594;DHT22;53450;42.584;23.366;2023-08-07T08:06:05;19.30;60.23
66594;DHT22;53450;42.584;23.366;2023-08-07T08:08:31;19.37;60.16
66594;DHT22;53450;42.584;23.366;2023-08-07T08:10:56;19.55;59.67
66594;DHT22;53450;42.584;23.366;2023-08-07T08:13:25;19.57;58.99
66594;DHT22;53450;42.584;23.366;2023-08-07T08:15:51;19.71;59.51
66594;DHT22;53450;42.584;23.366;2023-08-07T08:18:42;19.63;57.67
66594;DHT22;53450;42.584;23.366;2023-08-07T08:21:07;19.62;57.84
66594;DHT22;53450;42.584;23.366;2023-08-07T08:23:33;19.67;58.22
66594;DHT22;53450;42.584;23.366;2023-08-07T08:25:58;19.71;58.12
66594;DHT22;53450;42.584;23.366;2023-08-07T08:28:24;19.70;58.64
66594;DHT22;53450;42.584;23.366;2023-08-07T08:30:50;19.57;58.04
66594;DHT22;53450;42.584;23.366;2023-08-07T08:33:15;19.73;59.00
66594;DHT22;53450;42.584;23.366;2023-08-07T08:35:42;19.88;58.10
66594;DHT22;53450;42.584;23.366;2023-08-07T08:38:09;20.08;57.97
66594;DHT22;53450;42.584;23.366;2023-08-07T08:40:35;20.05;56.44
66594;DHT22;53450;42.584;23.366;2023-08-07T08:43:04;19.95;56.36
66594;DHT22;53450;42.584;23.366;2023-08-07T08:45:31;20.01;57.65
66594;DHT22;53450;42.584;23.366;2023-08-07T08:48:02;20.24;55.85
66594;DHT22;53450;42.584;23.366;2023-08-07T08:50:29;20.42;56.68
66594;DHT22;53450;42.584;23.366;2023-08-07T08:52:59;20.65;55.06
66594;DHT22;53450;42.584;23.366;2023-08-07T08:55:27;20.66;54.39
66594;DHT22;53450;42.584;23.366;2023-08-07T08:57:53;20.80;56.19
66594;DHT22;53450;42.584;23.366;2023-08-07T09:00:19;20.76;55.25
66594;DHT22;53450;42.584;23.366;2023-08-07T09:02:51;20.63;54.31
66594;DHT22;53450;42.584;23.366;2023-08-07T09:05:42;20.66;55.13
66594;DHT22;53450;42.584;23.366;2023-08-07T09:08:34;20.61;54.94
66594;DHT22;53450;42.584;23.366;2023-08-07T09:11:00;20.44;54.04
66594;DHT22;53450;42.584;23.366;2023-08-07T09:13:28;20.63;54.31
66594;DHT22;53450;42.584;23.366;2023-08-07T09:15:53;20.51;54.33
66594;DHT22;53450;42.584;23.366;2023-08-07T09:18:20;20.66;53.70
66594;DHT22;53450;42.584;23.366;2023-08-07T09:20:46;20.72;53.73
66594;DHT22;53450;42.584;23.366;2023-08-07T09:23:11;20.73;53.53
66594;DHT22;53450;42.584;23.366;2023-08-07T09:25:37;20.79;54.69
66594;DHT22;53450;42.584;23.366;2023-08-07T09:28:04;20.90;53.81
66594;DHT22;53450;42.584;23.366;2023-08-07T09:30:31;20.94;53.53
66594;DHT22;53450;42.584;23.366;2023-08-07T09:33:00;20.96;53.57
66594;DHT22;53450;42.584;23.366;2023-08-07T09:35:29;21.08;54.43
66594;DHT22;53450;42.584;23.366;2023-08-07T09:37:57;21.23;52.99
66594;DHT22;53450;42.584;23.366;2023-08-07T09:40:23;21.45;53.91
66594;DHT22;53450;42.584;23.366;2023-08-07T09:42:54;21.52;52.04
66594;DHT22;53450;42.584;23.366;2023-08-07T09:45:25;21.45;53.03
66594;DHT22;53450;42.584;23.366;2023-08-07T09:47:59;21.61;52.17
66594;DHT22;53450;42.584;23.366;2023-08-07T09:50:25;21.85;51.88
66594;DHT22;53450;42.584;23.366;2023-08-07T09:52:52;21.92;50.35
66594;DHT22;53450;42.584;23.366;2023-08-07T09:55:18;21.89;50.14
66594;DHT22;53450;42.584;23.366;2023-08-07T09:57:44;21.93;50.45
66594;DHT22;53450;42.584;23.366;2023-08-07T10:00:11;21.89;49.52
66594;DHT22;53450;42.584;23.366;2023-08-07T10:02:38;22.02;49.60
66594;DHT22;53450;42.584;23.366;2023-08-07T10:05:07;22.23;50.07
66594;DHT22;53450;42.584;23.366;2023-08-07T10:07:35;22.19;49.43
66594;DHT22;53450;42.584;23.366;2023-08-07T10:10:02;22.12;50.19
66594;DHT22;53450;42.584;23.366;2023-08-07T10:12:28;22.10;49.22
66594;DHT22;53450;42.584;23.366;2023-08-07T10:14:55;22.30;49.35
66594;DHT22;53450;42.584;23.366;2023-08-07T10:17:21;22.09;48.12
66594;DHT22;53450;42.584;23.366;2023-08-07T10:19:48;22.08;49.09
66594;DHT22;53450;42.584;23.366;2023-08-07T10:22:15;22.16;48.87
66594;DHT22;53450;42.584;23.366;2023-08-07T10:24:42;22.29;49.07
66594;DHT22;53450;42.584;23.366;2023-08-07T10:27:14;22.37;48.43
66594;DHT22;53450;42.584;23.366;2023-08-07T10:29:41;22.61;50.30
66594;DHT22;53450;42.584;23.366;2023-08-07T10:32:09;22.90;48.58
66594;DHT22;53450;42.584;23.366;2023-08-07T10:34:36;22.67;46.96
66594;DHT22;53450;42.584;23.366;2023-08-07T10:37:06;22.58;47.95
66594;DHT22;53450;42.584;23.366;2023-08-07T10:39:31;22.65;48.59
66594;DHT22;53450;42.584;23.366;2023-08-07T10:41:58;22.68;47.83
66594;DHT22;53450;42.584;23.366;2023-08-07T10:44:25;22.26;48.62
66594;DHT22;53450;42.584;23.366;2023-08-07T10:46:56;22.53;49.84
66594;DHT22;53450;42.584;23.366;2023-08-07T10:49:37;22.99;48.07
66594;DHT22;53450;42.584;23.366;2023-08-07T10:54:48;23.08;47.50
66594;DHT22;53450;42.584;23.366;2023-08-07T10:57:16;23.23;46.41
66594;DHT22;53450;42.584;23.366;2023-08-07T11:00:02;23.26;47.79
66594;DHT22;53450;42.584;23.366;2023-08-07T11:02:31;23.43;46.45
66594;DHT22;53450;42.584;23.366;2023-08-07T11:04:58;23.46;45.97
66594;DHT22;53450;42.584;23.366;2023-08-07T11:07:26;23.39;46.91
66594;DHT22;53450;42.584;23.366;2023-08-07T11:09:52;23.65;46.38
66594;DHT22;53450;42.584;23.366;2023-08-07T11:12:19;23.74;44.83
66594;DHT22;53450;42.584;23.366;2023-08-07T11:14:44;23.81;44.50
66594;DHT22;53450;42.584;23.366;2023-08-07T11:17:14;24.13;44.83
66594;DHT22;53450;42.584;23.366;2023-08-07T11:19:39;24.15;44.92
66594;DHT22;53450;42.584;23.366;2023-08-07T11:22:05;24.22;45.34
66594;DHT22;53450;42.584;23.366;2023-08-07T11:27:09;24.08;43.80
66594;DHT22;53450;42.584;23.366;2023-08-07T11:29:34;23.92;43.46
66594;DHT22;53450;42.584;23.366;2023-08-07T11:32:00;24.22;44.99
66594;DHT22;53450;42.584;23.366;2023-08-07T11:34:26;24.26;43.75
66594;DHT22;53450;42.584;23.366;2023-08-07T11:36:51;24.71;44.22
66594;DHT22;53450;42.584;23.366;2023-08-07T11:39:17;24.87;43.18
66594;DHT22;53450;42.584;23.366;2023-08-07T11:41:45;25.20;43.02
66594;DHT22;53450;42.584;23.366;2023-08-07T11:44:11;25.44;42.16
66594;DHT22;53450;42.584;23.366;2023-08-07T11:46:36;25.19;41.65
66594;DHT22;53450;42.584;23.366;2023-08-07T11:49:02;25.45;42.14
66594;DHT22;53450;42.584;23.366;2023-08-07T11:51:32;25.47;41.75
66594;DHT22;53450;42.584;23.366;2023-08-07T11:53:58;25.70;41.31
66594;DHT22;53450;42.584;23.366;2023-08-07T11:56:24;25.81;40.74
66594;DHT22;53450;42.584;23.366;2023-08-07T11:58:51;25.70;40.99
66594;DHT22;53450;42.584;23.366;2023-08-07T12:01:19;25.77;41.38
66594;DHT22;53450;42.584;23.366;2023-08-07T12:04:11;25.64;41.17
66594;DHT22;53450;42.584;23.366;2023-08-07T12:07:01;25.45;41.81
66594;DHT22;53450;42.584;23.366;2023-08-07T12:09:27;25.24;42.11
66594;DHT22;53450;42.584;23.366;2023-08-07T12:11:59;25.04;42.82
66594;DHT22;53450;42.584;23.366;2023-08-07T12:14:31;24.87;42.87
66594;DHT22;53450;42.584;23.366;2023-08-07T12:16:57;24.65;42.06
66594;DHT22;53450;42.584;23.366;2023-08-07T12:19:22;24.20;43.56
66594;DHT22;53450;42.584;23.366;2023-08-07T12:21:48;24.22;43.25
66594;DHT22;53450;42.584;23.366;2023-08-07T12:24:13;24.26;44.78
66594;DHT22;53450;42.584;23.366;2023-08-07T12:26:39;24.04;43.23
66594;DHT22;53450;42.584;23.366;2023-08-07T12:29:05;23.90;44.10
66594;DHT22;53450;42.584;23.366;2023-08-07T12:31:30;24.03;44.36
66594;DHT22;53450;42.584;23.366;2023-08-07T12:33:56;23.96;44.06
66594;DHT22;53450;42.584;23.366;2023-08-07T12:36:21;24.11;44.10
66594;DHT22;53450;42.584;23.366;2023-08-07T12:38:47;24.29;44.36
66594;DHT22;53450;42.584;23.366;2023-08-07T12:41:15;24.14;44.05
66594;DHT22;53450;42.584;23.366;2023-08-07T12:43:40;24.21;45.37
66594;DHT22;53450;42.584;23.366;2023-08-07T12:46:06;24.34;44.96
66594;DHT22;53450;42.584;23.366;2023-08-07T12:48:31;24.59;43.92
66594;DHT22;53450;42.584;23.366;2023-08-07T12:50:57;24.58;43.65
66594;DHT22;53450;42.584;23.366;2023-08-07T12:53:22;24.17;44.09
66594;DHT22;53450;42.584;23.366;2023-08-07T12:55:48;24.29;44.30
66594;DHT22;53450;42.584;23.366;2023-08-07T12:58:13;24.22;43.54
66594;DHT22;53450;42.584;23.366;2023-08-07T13:00:40;24.25;44.18
66594;DHT22;53450;42.584;23.366;2023-08-07T13:03:06;24.07;44.41
66594;DHT22;53450;42.584;23.366;2023-08-07T13:05:31;24.11;45.91
66594;DHT22;53450;42.584;23.366;2023-08-07T13:07:57;23.78;47.31
66594;DHT22;53450;42.584;23.366;2023-08-07T13:10:24;23.92;47.12
66594;DHT22;53450;42.584;23.366;2023-08-07T13:12:50;23.96;47.37
66594;DHT22;53450;42.584;23.366;2023-08-07T13:15:17;23.96;47.14
66594;DHT22;53450;42.584;23.366;2023-08-07T13:17:43;23.76;47.80
66594;DHT22;53450;42.584;23.366;2023-08-07T13:20:34;23.92;47.48
66594;DHT22;53450;42.584;23.366;2023-08-07T13:23:25;23.67;47.54
66594;DHT22;53450;42.584;23.366;2023-08-07T13:26:16;23.52;48.24
66594;DHT22;53450;42.584;23.366;2023-08-07T13:29:08;23.33;49.26
66594;DHT22;53450;42.584;23.366;2023-08-07T13:31:33;23.36;49.10
66594;DHT22;53450;42.584;23.366;2023-08-07T13:33:59;23.32;50.02
66594;DHT22;53450;42.584;23.366;2023-08-07T13:36:25;23.42;49.92
66594;DHT22;53450;42.584;23.366;2023-08-07T13:38:50;23.32;50.18
66594;DHT22;53450;42.584;23.366;2023-08-07T13:41:17;23.53;49.29
66594;DHT22;53450;42.584;23.366;2023-08-07T13:43:42;23.73;49.13
66594;DHT22;53450;42.584;23.366;2023-08-07T13:46:08;23.76;49.02
66594;DHT22;53450;42.584;23.366;2023-08-07T13:48:33;23.92;49.09
66594;DHT22;53450;42.584;23.366;2023-08-07T13:50:59;24.05;48.96
66594;DHT22;53450;42.584;23.366;2023-08-07T13:53:26;23.84;48.96
66594;DHT22;53450;42.584;23.366;2023-08-07T13:55:54;23.47;49.42
66594;DHT22;53450;42.584;23.366;2023-08-07T13:58:19;23.20;49.98
66594;DHT22;53450;42.584;23.366;2023-08-07T14:00:46;22.90;51.08
66594;DHT22;53450;42.584;23.366;2023-08-07T14:03:11;22.90;50.60
66594;DHT22;53450;42.584;23.366;2023-08-07T14:05:38;22.75;51.11
66594;DHT22;53450;42.584;23.366;2023-08-07T14:08:03;23.01;50.59
66594;DHT22;53450;42.584;23.366;2023-08-07T14:10:29;23.33;50.39
66594;DHT22;53450;42.584;23.366;2023-08-07T14:12:55;23.11;50.36
66594;DHT22;53450;42.584;23.366;2023-08-07T14:15:20;22.86;51.24
66594;DHT22;53450;42.584;23.366;2023-08-07T14:17:46;22.84;51.17
66594;DHT22;53450;42.584;23.366;2023-08-07T14:20:37;22.83;51.51
66594;DHT22;53450;42.584;23.366;2023-08-07T14:23:28;22.87;51.63
66594;DHT22;53450;42.584;23.366;2023-08-07T14:25:54;23.01;51.38
66594;DHT22;53450;42.584;23.366;2023-08-07T14:28:19;23.12;50.47
66594;DHT22;53450;42.584;23.366;2023-08-07T14:30:45;23.05;50.61
66594;DHT22;53450;42.584;23.366;2023-08-07T14:33:11;23.09;50.67
66594;DHT22;53450;42.584;23.366;2023-08-07T14:35:37;22.74;51.89
66594;DHT22;53450;42.584;23.366;2023-08-07T14:38:02;22.33;51.35
66594;DHT22;53450;42.584;23.366;2023-08-07T14:40:28;22.24;52.36
66594;DHT22;53450;42.584;23.366;2023-08-07T14:42:54;22.61;51.22
66594;DHT22;53450;42.584;23.366;2023-08-07T14:45:20;22.57;50.62
66594;DHT22;53450;42.584;23.366;2023-08-07T14:47:46;22.51;50.99
66594;DHT22;53450;42.584;23.366;2023-08-07T14:50:12;22.61;51.38
66594;DHT22;53450;42.584;23.366;2023-08-07T14:52:37;22.26;51.55
66594;DHT22;53450;42.584;23.366;2023-08-07T14:55:03;21.96;52.79
66594;DHT22;53450;42.584;23.366;2023-08-07T14:57:29;21.83;52.98
66594;DHT22;53450;42.584;23.366;2023-08-07T14:59:54;21.65;53.90
66594;DHT22;53450;42.584;23.366;2023-08-07T15:02:20;21.68;53.71
66594;DHT22;53450;42.584;23.366;2023-08-07T15:04:46;21.61;54.40
66594;DHT22;53450;42.584;23.366;2023-08-07T15:07:12;21.88;53.99
66594;DHT22;53450;42.584;23.366;2023-08-07T15:09:38;21.69;54.28
66594;DHT22;53450;42.584;23.366;2023-08-07T15:12:04;21.78;54.33
66594;DHT22;53450;42.584;23.366;2023-08-07T15:14:32;21.99;53.87
66594;DHT22;53450;42.584;23.366;2023-08-07T15:16:58;21.96;54.12
66594;DHT22;53450;42.584;23.366;2023-08-07T15:21:31;21.79;53.44
66594;DHT22;53450;42.584;23.366;2023-08-07T15:24:22;21.63;53.95
66594;DHT22;53450;42.584;23.366;2023-08-07T15:26:47;21.48;54.01
66594;DHT22;53450;42.584;23.366;2023-08-07T15:29:13;21.06;55.29
66594;DHT22;53450;42.584;23.366;2023-08-07T15:31:38;21.24;55.08
66594;DHT22;53450;42.584;23.366;2023-08-07T15:34:04;21.34;55.19
66594;DHT22;53450;42.584;23.366;2023-08-07T15:36:30;21.27;55.62
66594;DHT22;53450;42.584;23.366;2023-08-07T15:41:20;20.97;56.10
66594;DHT22;53450;42.584;23.366;2023-08-07T15:44:11;20.92;56.93